METAR Data
IDs: Format: Raw Decoded Include TAF

Data at: 2105 UTC 25 Oct 2021

EDAC 252050Z AUTO 20009KT 9999 // BKN170/// 08/04 Q1019